createdAt,value
2019-06-07T00:01:27.061Z,23.07
2019-06-07T00:03:53.740Z,23.10
2019-06-07T00:06:24.536Z,24.33
2019-06-07T00:08:48.002Z,24.07
2019-06-07T00:11:18.001Z,25.53
2019-06-07T00:13:42.284Z,22.13
2019-06-07T00:16:08.736Z,25.43
2019-06-07T00:18:35.063Z,23.90
2019-06-07T00:21:01.173Z,23.77
2019-06-07T00:23:27.295Z,24.63
2019-06-07T00:25:53.547Z,29.20
2019-06-07T00:28:20.131Z,22.90
2019-06-07T00:30:51.958Z,26.87
2019-06-07T00:33:17.364Z,25.23
2019-06-07T00:35:42.931Z,25.40
2019-06-07T00:38:09.405Z,25.90
2019-06-07T00:40:35.814Z,23.30
2019-06-07T00:43:01.925Z,20.73
2019-06-07T00:45:28.156Z,25.27
2019-06-07T00:47:54.394Z,24.00
2019-06-07T00:50:23.789Z,24.27
2019-06-07T00:55:18.125Z,24.07
2019-06-07T00:57:44.803Z,26.23
2019-06-07T01:00:12.319Z,24.20
2019-06-07T01:02:39.188Z,26.30
2019-06-07T01:05:06.008Z,25.40
2019-06-07T01:07:32.209Z,22.17
2019-06-07T01:09:58.446Z,23.53
2019-06-07T01:12:26.993Z,24.73
2019-06-07T01:14:52.653Z,23.67
2019-06-07T01:17:39.241Z,27.80
2019-06-07T01:19:53.210Z,23.70
2019-06-07T01:22:20.697Z,25.10
2019-06-07T01:24:47.381Z,27.47
2019-06-07T01:27:13.589Z,26.13
2019-06-07T01:29:39.693Z,24.50
2019-06-07T01:32:06.177Z,26.07
2019-06-07T01:34:32.286Z,25.97
2019-06-07T01:36:58.397Z,24.30
2019-06-07T01:39:29.283Z,23.73
2019-06-07T01:41:52.647Z,25.90
2019-06-07T01:44:22.725Z,28.23
2019-06-07T01:46:46.946Z,25.07
2019-06-07T01:49:13.166Z,29.33
2019-06-07T01:51:39.277Z,26.47
2019-06-07T01:56:33.549Z,28.13
2019-06-07T01:58:59.673Z,27.27
2019-06-07T02:01:28.543Z,25.30
2019-06-07T02:03:53.818Z,27.40
2019-06-07T02:06:21.025Z,27.17
2019-06-07T02:08:48.152Z,26.27
2019-06-07T02:11:14.429Z,27.67
2019-06-07T02:13:40.549Z,30.97
2019-06-07T02:16:06.801Z,28.00
2019-06-07T02:18:34.973Z,29.17
2019-06-07T02:21:01.021Z,29.17
2019-06-07T02:23:30.937Z,33.03
2019-06-07T02:25:55.188Z,32.37
2019-06-07T02:28:32.090Z,31.93
2019-06-07T02:30:59.410Z,27.40
2019-06-07T02:33:17.811Z,30.47
2019-06-07T02:35:43.965Z,30.27
2019-06-07T02:38:10.173Z,27.97
2019-06-07T02:40:37.422Z,29.30
2019-06-07T02:43:04.131Z,26.43
2019-06-07T02:45:37.603Z,27.00
2019-06-07T02:47:58.380Z,27.13
2019-06-07T02:50:28.549Z,27.23
2019-06-07T02:52:54.482Z,32.13
2019-06-07T02:55:20.699Z,28.03
2019-06-07T02:57:46.900Z,27.13
2019-06-07T03:00:41.395Z,27.13
2019-06-07T03:02:47.910Z,26.07
2019-06-07T03:05:14.366Z,25.83
2019-06-07T03:07:44.985Z,28.37
2019-06-07T03:10:10.413Z,27.03
2019-06-07T03:12:39.382Z,26.70
2019-06-07T03:15:05.902Z,32.03
2019-06-07T03:17:38.204Z,28.10
2019-06-07T03:20:06.950Z,32.90
2019-06-07T03:22:37.988Z,31.27
2019-06-07T03:25:03.574Z,31.07
2019-06-07T03:27:36.274Z,30.80
2019-06-07T03:29:58.114Z,31.57
2019-06-07T03:32:24.337Z,26.83
2019-06-07T03:34:50.485Z,31.17
2019-06-07T03:37:16.739Z,29.40
2019-06-07T03:39:42.841Z,25.77
2019-06-07T03:42:08.949Z,26.50
2019-06-07T03:44:37.868Z,26.53
2019-06-07T03:47:03.119Z,27.43
2019-06-07T03:49:31.538Z,26.83
2019-06-07T03:51:57.426Z,30.57
2019-06-07T03:54:23.635Z,26.37
2019-06-07T03:56:49.864Z,28.77
2019-06-07T03:59:16.272Z,21.93
2019-06-07T04:01:42.395Z,24.60
2019-06-07T04:04:08.724Z,25.53
2019-06-07T04:06:36.862Z,23.17
2019-06-07T04:09:04.969Z,24.47
2019-06-07T04:11:32.596Z,21.37
2019-06-07T04:13:59.077Z,23.17
2019-06-07T04:16:25.287Z,23.00
2019-06-07T04:18:51.520Z,26.77
2019-06-07T04:21:17.663Z,24.70
2019-06-07T04:23:45.806Z,25.00
2019-06-07T04:26:11.878Z,24.73
2019-06-07T04:29:31.164Z,26.60
2019-06-07T04:31:06.249Z,22.80
2019-06-07T04:33:37.070Z,21.30
2019-06-07T04:36:01.551Z,15.77
2019-06-07T04:38:31.969Z,14.37
2019-06-07T04:40:58.871Z,12.97
2019-06-07T04:43:26.137Z,11.50
2019-06-07T04:45:54.140Z,17.33
2019-06-07T04:48:20.828Z,10.47
2019-06-07T04:50:48.300Z,8.43
2019-06-07T04:53:14.602Z,10.47
2019-06-07T04:55:41.909Z,10.30
2019-06-07T04:58:08.163Z,8.83
2019-06-07T05:00:56.392Z,13.53
2019-06-07T05:03:04.288Z,10.07
2019-06-07T05:05:31.861Z,8.23
2019-06-07T05:07:58.149Z,8.27
2019-06-07T05:10:24.461Z,7.67
2019-06-07T05:12:50.809Z,11.43
2019-06-07T05:15:17.466Z,8.37
2019-06-07T05:17:45.207Z,12.17
2019-06-07T05:20:11.675Z,8.13
2019-06-07T05:22:40.772Z,10.20
2019-06-07T05:25:06.188Z,9.90
2019-06-07T05:27:34.326Z,9.80
2019-06-07T05:30:09.488Z,7.57
2019-06-07T05:32:28.365Z,7.90
2019-06-07T05:34:54.590Z,11.67
2019-06-07T05:37:20.713Z,11.53
2019-06-07T05:39:46.926Z,10.47
2019-06-07T05:42:13.288Z,10.60
2019-06-07T05:44:43.530Z,12.57
2019-06-07T05:47:07.502Z,9.10
2019-06-07T05:49:37.876Z,7.40
2019-06-07T05:52:01.908Z,12.93
2019-06-07T05:54:28.024Z,10.20
2019-06-07T05:56:54.162Z,11.30
2019-06-07T05:59:20.272Z,10.70
2019-06-07T06:01:57.424Z,10.27
2019-06-07T06:04:15.122Z,9.87
2019-06-07T06:06:44.744Z,10.27
2019-06-07T06:09:13.770Z,11.87
2019-06-07T06:11:49.424Z,20.50
2019-06-07T06:14:08.322Z,9.60
2019-06-07T06:16:37.195Z,12.23
2019-06-07T06:19:03.608Z,13.57
2019-06-07T06:21:29.844Z,13.47
2019-06-07T06:23:56.029Z,12.00
2019-06-07T06:26:22.190Z,10.90
2019-06-07T06:28:49.725Z,9.77
2019-06-07T06:31:16.083Z,9.63
2019-06-07T06:33:43.400Z,11.13
2019-06-07T06:36:10.508Z,14.87
2019-06-07T06:38:38.588Z,15.20
2019-06-07T06:41:15.400Z,12.53
2019-06-07T06:43:32.892Z,14.30
2019-06-07T06:45:59.104Z,10.23
2019-06-07T06:48:25.406Z,13.13
2019-06-07T06:50:52.704Z,11.27
2019-06-07T06:53:19.157Z,9.53
2019-06-07T06:55:49.273Z,11.87
2019-06-07T06:58:13.517Z,10.47
2019-06-07T07:00:53.486Z,15.47
2019-06-07T07:05:44.059Z,11.03
2019-06-07T07:08:11.469Z,11.27
2019-06-07T07:10:43.077Z,11.63
2019-06-07T07:13:09.681Z,10.57
2019-06-07T07:15:35.956Z,10.77
2019-06-07T07:18:08.549Z,13.00
2019-06-07T07:20:30.743Z,9.83
2019-06-07T07:22:57.236Z,9.53
2019-06-07T07:25:23.537Z,11.23
2019-06-07T07:27:53.423Z,8.90
2019-06-07T07:30:39.695Z,10.53
2019-06-07T07:33:06.849Z,11.17
2019-06-07T07:35:33.534Z,11.03
2019-06-07T07:38:00.215Z,12.50
2019-06-07T07:42:56.581Z,9.57
2019-06-07T07:45:22.586Z,8.83
2019-06-07T07:48:03.199Z,7.47
2019-06-07T07:50:16.946Z,8.17
2019-06-07T07:52:45.810Z,10.43
2019-06-07T07:55:11.445Z,7.30
2019-06-07T07:57:37.856Z,9.20
2019-06-07T08:00:48.152Z,10.97
2019-06-07T08:02:33.810Z,15.03
2019-06-07T08:05:21.813Z,7.70
2019-06-07T08:07:28.238Z,11.43
2019-06-07T08:09:57.723Z,9.83
2019-06-07T08:12:22.588Z,11.13
2019-06-07T08:14:51.116Z,12.40
2019-06-07T08:17:16.820Z,9.20
2019-06-07T08:19:43.111Z,8.67
2019-06-07T08:22:09.264Z,9.60
2019-06-07T08:24:35.485Z,8.27
2019-06-07T08:27:24.698Z,9.07
2019-06-07T08:29:44.494Z,9.13
2019-06-07T08:31:58.722Z,7.97
2019-06-07T08:34:26.602Z,9.60
2019-06-07T08:36:54.939Z,7.67
2019-06-07T08:39:20.839Z,8.90
2019-06-07T08:41:59.355Z,6.03
2019-06-07T08:44:23.383Z,8.17
2019-06-07T08:46:43.097Z,8.43
2019-06-07T08:49:09.233Z,9.60
2019-06-07T08:51:35.366Z,9.80
2019-06-07T08:54:21.215Z,8.73
2019-06-07T08:56:29.565Z,6.70
2019-06-07T08:59:00.435Z,6.77
2019-06-07T09:01:23.718Z,8.00
2019-06-07T09:03:49.828Z,8.47
2019-06-07T09:07:01.341Z,8.10
2019-06-07T09:08:44.006Z,9.07
2019-06-07T09:11:11.466Z,9.57
2019-06-07T09:13:37.905Z,9.80
2019-06-07T09:16:08.268Z,11.77
2019-06-07T09:18:43.221Z,12.17
2019-06-07T09:21:04.023Z,10.13
2019-06-07T09:23:28.513Z,9.60
2019-06-07T09:26:04.876Z,11.50
2019-06-07T09:28:23.638Z,7.47
2019-06-07T09:30:49.852Z,7.23
2019-06-07T09:33:16.015Z,8.87
2019-06-07T09:35:42.253Z,8.37
2019-06-07T09:38:23.725Z,7.97
2019-06-07T09:40:36.564Z,10.70
2019-06-07T09:43:54.267Z,9.33
2019-06-07T09:45:31.909Z,12.20
2019-06-07T09:47:59.337Z,9.40
2019-06-07T09:50:26.281Z,12.13
2019-06-07T09:52:58.653Z,9.50
2019-06-07T09:55:24.765Z,10.50
2019-06-07T09:57:48.565Z,7.70
2019-06-07T10:00:39.207Z,6.00
2019-06-07T10:02:44.029Z,10.50
2019-06-07T10:05:13.974Z,8.83
2019-06-07T10:07:57.258Z,10.87
2019-06-07T10:12:35.406Z,6.83
2019-06-07T10:15:02.912Z,7.20
2019-06-07T10:17:29.326Z,7.30
2019-06-07T10:19:55.552Z,9.90
2019-06-07T10:22:22.281Z,10.93
2019-06-07T10:24:48.485Z,9.40
2019-06-07T10:27:14.664Z,7.63
2019-06-07T10:29:40.862Z,6.80
2019-06-07T10:32:07.189Z,10.23
2019-06-07T10:34:33.411Z,8.03
2019-06-07T10:37:02.944Z,8.03
2019-06-07T10:39:27.540Z,7.40
2019-06-07T10:41:54.188Z,11.07
2019-06-07T10:44:20.397Z,11.00
2019-06-07T10:46:46.496Z,8.70
2019-06-07T10:49:12.761Z,8.93
2019-06-07T10:51:38.973Z,9.57
2019-06-07T10:54:19.216Z,9.77
2019-06-07T10:56:33.172Z,9.17
2019-06-07T10:58:59.401Z,8.87
2019-06-07T11:01:25.516Z,9.30
2019-06-07T11:03:51.664Z,7.57
2019-06-07T11:06:17.794Z,9.13
2019-06-07T11:08:44.012Z,9.30
2019-06-07T11:11:10.244Z,9.27
2019-06-07T11:13:36.572Z,10.27
2019-06-07T11:16:04.611Z,11.63
2019-06-07T11:18:30.973Z,10.60
2019-06-07T11:20:57.191Z,12.03
2019-06-07T11:23:23.595Z,10.10
2019-06-07T11:25:49.853Z,9.23
2019-06-07T11:28:16.181Z,8.73
2019-06-07T11:30:42.308Z,10.13
2019-06-07T11:33:08.556Z,18.10
2019-06-07T11:35:34.758Z,7.77
2019-06-07T11:38:00.886Z,8.70
2019-06-07T11:40:35.086Z,8.90
2019-06-07T11:42:55.063Z,12.10
2019-06-07T11:45:21.381Z,6.63
2019-06-07T11:47:47.623Z,6.37
2019-06-07T11:50:15.538Z,6.50
2019-06-07T11:52:41.980Z,4.20
2019-06-07T11:55:09.187Z,7.03
2019-06-07T11:57:35.528Z,6.50
2019-06-07T12:00:04.139Z,6.70
2019-06-07T12:02:30.364Z,3.97
2019-06-07T12:04:56.488Z,3.33
2019-06-07T12:07:22.614Z,6.17
2019-06-07T12:09:56.390Z,5.60
2019-06-07T12:12:16.872Z,3.77
2019-06-07T12:14:43.085Z,4.60
2019-06-07T12:17:09.316Z,4.17
2019-06-07T12:19:35.525Z,5.27
2019-06-07T12:22:01.720Z,2.40
2019-06-07T12:24:28.095Z,5.50
2019-06-07T12:26:54.220Z,2.77
2019-06-07T12:29:21.126Z,6.83
2019-06-07T12:31:47.511Z,5.87
2019-06-07T12:34:15.420Z,4.70
2019-06-07T12:36:41.822Z,5.27
2019-06-07T12:39:08.074Z,6.20
2019-06-07T12:41:34.429Z,4.13
2019-06-07T12:44:00.626Z,4.90
2019-06-07T12:46:28.645Z,5.27
2019-06-07T12:48:54.792Z,4.63
2019-06-07T12:51:21.285Z,8.50
2019-06-07T12:53:47.559Z,3.03
2019-06-07T12:56:13.663Z,7.03
2019-06-07T12:58:39.884Z,6.07
2019-06-07T13:01:06.126Z,5.30
2019-06-07T13:03:32.455Z,7.77
2019-06-07T13:05:58.667Z,9.17
2019-06-07T13:08:24.903Z,6.77
2019-06-07T13:10:51.022Z,5.07
2019-06-07T13:13:18.253Z,6.77
2019-06-07T13:15:44.865Z,5.20
2019-06-07T13:18:14.879Z,4.63
2019-06-07T13:20:38.976Z,5.83
2019-06-07T13:23:05.140Z,5.13
2019-06-07T13:25:45.493Z,7.93
2019-06-07T13:27:59.466Z,7.90
2019-06-07T13:30:25.904Z,5.10
2019-06-07T13:32:52.024Z,6.53
2019-06-07T13:35:20.031Z,4.87
2019-06-07T13:37:46.305Z,6.73
2019-06-07T13:40:12.924Z,5.03
2019-06-07T13:42:39.137Z,6.00
2019-06-07T13:45:07.303Z,3.77
2019-06-07T13:47:33.488Z,4.30
2019-06-07T13:49:59.610Z,5.73
2019-06-07T13:52:25.859Z,5.83
2019-06-07T13:54:51.970Z,5.40
2019-06-07T13:57:18.318Z,8.13
2019-06-07T13:59:44.578Z,4.60
2019-06-07T14:02:10.883Z,5.03
2019-06-07T14:04:36.992Z,5.50
2019-06-07T14:07:03.372Z,3.50
2019-06-07T14:09:29.819Z,5.57
2019-06-07T14:11:56.153Z,3.30
2019-06-07T14:14:24.570Z,4.13
2019-06-07T14:16:50.578Z,2.90
2019-06-07T14:19:16.680Z,8.63
2019-06-07T14:21:42.844Z,3.90
2019-06-07T14:24:08.948Z,4.43
2019-06-07T14:26:35.141Z,3.30
2019-06-07T14:29:01.391Z,3.00
2019-06-07T14:31:28.102Z,4.43
2019-06-07T14:33:54.315Z,5.30
2019-06-07T14:36:20.473Z,2.50
2019-06-07T14:38:46.676Z,2.70
2019-06-07T14:41:12.792Z,3.50
2019-06-07T14:43:39.053Z,5.30
2019-06-07T14:46:05.178Z,4.40
2019-06-07T14:48:32.645Z,3.67
2019-06-07T14:50:58.973Z,2.73
2019-06-07T14:53:26.476Z,2.87
2019-06-07T14:55:52.891Z,2.07
2019-06-07T14:58:19.144Z,1.23
2019-06-07T15:00:45.254Z,2.70
2019-06-07T15:03:11.480Z,2.50
2019-06-07T15:05:40.145Z,2.90
2019-06-07T15:08:05.846Z,2.37
2019-06-07T15:10:33.607Z,1.60
2019-06-07T15:13:00.217Z,4.50
2019-06-07T15:15:26.643Z,4.67
2019-06-07T15:17:52.876Z,4.13
2019-06-07T15:20:19.275Z,4.10
2019-06-07T15:22:45.372Z,3.07
2019-06-07T15:25:11.695Z,1.73
2019-06-07T15:27:38.011Z,2.83
2019-06-07T15:30:10.375Z,2.87
2019-06-07T15:32:38.747Z,1.83
2019-06-07T15:35:05.235Z,2.57
2019-06-07T15:37:32.494Z,2.40
2019-06-07T15:39:58.751Z,1.90
2019-06-07T15:42:40.138Z,3.67
2019-06-07T15:44:55.861Z,2.83
2019-06-07T15:47:20.912Z,4.50
2019-06-07T15:49:47.179Z,2.60
2019-06-07T15:52:13.285Z,3.23
2019-06-07T15:54:40.607Z,4.00
2019-06-07T15:57:07.141Z,3.03
2019-06-07T15:59:33.363Z,1.50
2019-06-07T16:02:01.502Z,1.60
2019-06-07T16:04:27.787Z,1.80
2019-06-07T16:06:54.033Z,1.93
2019-06-07T16:09:21.575Z,3.97
2019-06-07T16:11:47.758Z,2.90
2019-06-07T16:14:13.985Z,1.87
2019-06-07T16:16:41.390Z,1.70
2019-06-07T16:19:07.916Z,3.33
2019-06-07T16:21:35.196Z,3.33
2019-06-07T16:24:01.447Z,1.57
2019-06-07T16:26:27.728Z,3.83
2019-06-07T16:28:57.185Z,2.53
2019-06-07T16:31:22.001Z,1.37
2019-06-07T16:33:48.162Z,1.40
2019-06-07T16:36:14.294Z,2.00
2019-06-07T16:38:40.521Z,3.23
2019-06-07T16:41:07.019Z,2.70
2019-06-07T16:43:33.239Z,3.83
2019-06-07T16:48:36.757Z,3.00
2019-06-07T16:51:03.290Z,3.93
2019-06-07T16:53:29.514Z,3.27
2019-06-07T16:55:55.772Z,4.40
2019-06-07T16:58:21.985Z,3.03
2019-06-07T17:00:48.624Z,3.60
2019-06-07T17:03:15.043Z,4.07
2019-06-07T17:05:44.883Z,3.33
2019-06-07T17:08:09.306Z,2.83
2019-06-07T17:10:35.539Z,2.00
2019-06-07T17:13:02.779Z,1.77
2019-06-07T17:15:28.976Z,2.57
2019-06-07T17:17:55.364Z,1.63
2019-06-07T17:20:21.776Z,2.80
2019-06-07T17:22:47.984Z,5.30
2019-06-07T17:25:15.637Z,3.63
2019-06-07T17:27:42.163Z,2.03
2019-06-07T17:30:10.483Z,2.30
2019-06-07T17:32:48.452Z,4.07
2019-06-07T17:35:05.287Z,4.43
2019-06-07T17:37:31.405Z,4.20
2019-06-07T17:39:57.785Z,5.40
2019-06-07T17:42:23.914Z,5.07
2019-06-07T17:44:51.330Z,2.97
2019-06-07T17:47:17.702Z,1.63
2019-06-07T17:49:44.293Z,3.40
2019-06-07T17:52:10.433Z,1.90
2019-06-07T17:54:36.577Z,3.97
2019-06-07T17:57:02.801Z,2.63
2019-06-07T17:59:28.992Z,3.80
2019-06-07T18:02:13.286Z,1.83
2019-06-07T18:04:23.259Z,7.60
2019-06-07T18:06:51.470Z,4.83
2019-06-07T18:09:18.048Z,3.43
2019-06-07T18:11:44.262Z,3.17
2019-06-07T18:14:11.235Z,2.63
2019-06-07T18:16:37.627Z,2.90
2019-06-07T18:19:04.020Z,3.70
2019-06-07T18:21:30.139Z,4.30
2019-06-07T18:23:56.383Z,5.13
2019-06-07T18:26:22.592Z,4.70
2019-06-07T18:28:48.703Z,2.23
2019-06-07T18:31:15.044Z,5.50
2019-06-07T18:33:41.168Z,2.47
2019-06-07T18:36:07.372Z,1.27
2019-06-07T18:38:33.531Z,2.10
2019-06-07T18:40:59.743Z,3.90
2019-06-07T18:43:25.881Z,2.47
2019-06-07T18:45:53.311Z,2.07
2019-06-07T18:48:19.870Z,5.70
2019-06-07T18:50:46.507Z,3.50
2019-06-07T18:53:12.868Z,3.70
2019-06-07T18:55:39.574Z,3.33
2019-06-07T18:58:05.821Z,4.20
2019-06-07T19:00:32.298Z,3.43
2019-06-07T19:02:58.518Z,2.90
2019-06-07T19:05:24.906Z,3.07
2019-06-07T19:07:52.431Z,2.53
2019-06-07T19:10:20.080Z,4.50
2019-06-07T19:12:46.265Z,5.17
2019-06-07T19:15:14.260Z,7.83
2019-06-07T19:17:40.566Z,4.87
2019-06-07T19:20:07.185Z,3.30
2019-06-07T19:22:33.331Z,9.30
2019-06-07T19:25:00.472Z,5.50
2019-06-07T19:27:26.851Z,3.47
2019-06-07T19:29:53.000Z,2.30
2019-06-07T19:32:19.324Z,2.17
2019-06-07T19:34:45.441Z,4.00
2019-06-07T19:37:11.581Z,2.97
2019-06-07T19:39:37.675Z,4.13
2019-06-07T19:42:04.099Z,8.20
2019-06-07T19:44:30.339Z,3.27
2019-06-07T19:46:56.581Z,2.97
2019-06-07T19:49:22.805Z,6.00
2019-06-07T19:51:48.965Z,7.33
2019-06-07T19:54:15.161Z,2.47
2019-06-07T19:56:41.256Z,3.43
2019-06-07T19:59:07.411Z,3.57
2019-06-07T20:01:33.526Z,4.60
2019-06-07T20:04:00.008Z,3.77
2019-06-07T20:06:26.270Z,6.93
2019-06-07T20:08:52.386Z,4.30
2019-06-07T20:11:18.503Z,6.80
2019-06-07T20:13:44.999Z,4.63
2019-06-07T20:16:11.108Z,10.20
2019-06-07T20:18:37.312Z,4.07
2019-06-07T20:21:04.818Z,7.87
2019-06-07T20:23:31.117Z,9.03
2019-06-07T20:25:57.248Z,4.30
2019-06-07T20:28:23.480Z,4.40
2019-06-07T20:30:52.198Z,6.40
2019-06-07T20:33:17.745Z,11.27
2019-06-07T20:35:43.905Z,7.30
2019-06-07T20:38:10.015Z,4.93
2019-06-07T20:40:36.109Z,7.03
2019-06-07T20:43:03.514Z,4.83
2019-06-07T20:45:33.494Z,3.53
2019-06-07T20:47:58.227Z,6.93
2019-06-07T20:50:24.548Z,5.73
2019-06-07T20:52:50.662Z,5.93
2019-06-07T20:55:17.263Z,6.60
2019-06-07T20:57:43.450Z,4.83
2019-06-07T21:00:17.249Z,3.70
2019-06-07T21:02:37.840Z,4.83
2019-06-07T21:05:05.244Z,2.63
2019-06-07T21:07:31.422Z,8.57
2019-06-07T21:09:57.575Z,3.63
2019-06-07T21:12:23.977Z,3.73
2019-06-07T21:14:50.169Z,2.10
2019-06-07T21:17:16.268Z,4.30
2019-06-07T21:19:42.528Z,3.63
2019-06-07T21:22:08.881Z,1.73
2019-06-07T21:24:35.059Z,1.17
2019-06-07T21:27:01.678Z,1.80
2019-06-07T21:29:28.265Z,2.50
2019-06-07T21:31:54.423Z,3.27
2019-06-07T21:34:20.993Z,2.80
2019-06-07T21:36:47.109Z,5.27
2019-06-07T21:39:13.358Z,1.90
2019-06-07T21:41:39.578Z,4.37
2019-06-07T21:44:06.199Z,2.03
2019-06-07T21:46:32.506Z,1.30
2019-06-07T21:48:58.803Z,2.63
2019-06-07T21:51:24.971Z,3.70
2019-06-07T21:53:51.073Z,1.87
2019-06-07T21:56:17.283Z,2.33
2019-06-07T21:58:43.397Z,6.57
2019-06-07T22:01:14.191Z,2.50
2019-06-07T22:03:40.765Z,2.60
2019-06-07T22:06:07.636Z,2.60
2019-06-07T22:08:33.893Z,3.77
2019-06-07T22:11:00.170Z,3.13
2019-06-07T22:13:26.364Z,2.53
2019-06-07T22:15:52.486Z,1.87
2019-06-07T22:18:18.645Z,4.97
2019-06-07T22:20:44.751Z,3.27
2019-06-07T22:23:10.856Z,4.20
2019-06-07T22:25:37.137Z,4.63
2019-06-07T22:28:03.423Z,4.53
2019-06-07T22:30:29.531Z,2.60
2019-06-07T22:32:55.669Z,4.53
2019-06-07T22:35:21.933Z,9.60
2019-06-07T22:37:48.133Z,2.27
2019-06-07T22:40:14.757Z,2.00
2019-06-07T22:42:40.925Z,5.03
2019-06-07T22:45:07.927Z,5.23
2019-06-07T22:47:34.485Z,4.23
2019-06-07T22:50:00.600Z,4.50
2019-06-07T22:52:26.805Z,4.37
2019-06-07T22:54:53.039Z,4.77
2019-06-07T22:57:21.132Z,5.80
2019-06-07T22:59:47.231Z,4.73
2019-06-07T23:02:14.570Z,3.43
2019-06-07T23:04:42.781Z,2.43
2019-06-07T23:07:08.970Z,3.93
2019-06-07T23:09:35.163Z,5.83
2019-06-07T23:12:01.277Z,8.67
2019-06-07T23:14:27.557Z,4.33
2019-06-07T23:16:55.827Z,4.43
2019-06-07T23:19:21.940Z,3.77
2019-06-07T23:21:48.137Z,3.60
2019-06-07T23:24:14.279Z,4.73
2019-06-07T23:26:40.413Z,4.37
2019-06-07T23:29:06.629Z,6.30
2019-06-07T23:31:33.048Z,9.03
2019-06-07T23:34:01.450Z,3.93
2019-06-07T23:36:27.822Z,3.77
2019-06-07T23:38:56.664Z,5.33
2019-06-07T23:41:22.764Z,5.93
2019-06-07T23:43:48.973Z,3.23
2019-06-07T23:46:15.348Z,8.20
2019-06-07T23:48:42.592Z,4.87
2019-06-07T23:51:08.748Z,1.93
2019-06-07T23:53:34.892Z,2.07
2019-06-07T23:56:00.996Z,5.03
2019-06-07T23:58:29.033Z,3.03
